createdAt,value
2023-01-23T00:01:23.803Z,-1.60
2023-01-23T00:03:52.858Z,-1.60
2023-01-23T00:06:19.786Z,-1.60
2023-01-23T00:08:46.932Z,-1.60
2023-01-23T00:11:18.985Z,-1.70
2023-01-23T00:13:46.080Z,-1.70
2023-01-23T00:16:18.031Z,-1.80
2023-01-23T00:18:45.151Z,-1.80
2023-01-23T00:21:14.487Z,-1.90
2023-01-23T00:23:46.631Z,-1.90
2023-01-23T00:26:15.809Z,-1.90
2023-01-23T00:28:44.802Z,-1.90
2023-01-23T00:31:15.501Z,-1.80
2023-01-23T00:33:43.343Z,-1.80
2023-01-23T00:36:10.752Z,-1.80
2023-01-23T00:38:37.827Z,-1.90
2023-01-23T00:41:04.882Z,-1.90
2023-01-23T00:43:32.783Z,-1.90
2023-01-23T00:46:00.346Z,-1.90
2023-01-23T00:48:27.313Z,-1.90
2023-01-23T00:50:54.612Z,-2.00
2023-01-23T00:53:21.845Z,-2.00
2023-01-23T00:55:56.175Z,-2.00
2023-01-23T00:58:23.807Z,-2.10
2023-01-23T01:00:50.644Z,-2.10
2023-01-23T01:03:21.043Z,-2.10
2023-01-23T01:05:48.247Z,-2.10
2023-01-23T01:08:15.259Z,-2.10
2023-01-23T01:10:42.203Z,-2.10
2023-01-23T01:13:09.597Z,-2.10
2023-01-23T01:15:36.821Z,-2.00
2023-01-23T01:18:03.910Z,-2.00
2023-01-23T01:20:30.817Z,-2.10
2023-01-23T01:22:58.745Z,-2.10
2023-01-23T01:25:25.816Z,-2.10
2023-01-23T01:27:55.987Z,-2.20
2023-01-23T01:30:23.368Z,-2.20
2023-01-23T01:32:50.199Z,-2.20
2023-01-23T01:35:17.156Z,-2.20
2023-01-23T01:37:43.935Z,-2.30
2023-01-23T01:40:17.513Z,-2.30
2023-01-23T01:42:48.176Z,-2.30
2023-01-23T01:46:08.764Z,-2.30
2023-01-23T01:48:55.891Z,-2.30
2023-01-23T01:51:32.678Z,-2.30
2023-01-23T01:54:21.441Z,-2.40
2023-01-23T01:56:54.151Z,-2.40
2023-01-23T01:59:22.068Z,-2.40
2023-01-23T02:01:54.312Z,-2.40
2023-01-23T02:04:21.234Z,-2.50
2023-01-23T02:06:48.237Z,-2.50
2023-01-23T02:09:24.667Z,-2.60
2023-01-23T02:11:51.637Z,-2.60
2023-01-23T02:14:20.210Z,-2.60
2023-01-23T02:16:52.111Z,-2.60
2023-01-23T02:19:31.595Z,-2.60
2023-01-23T02:22:22.844Z,-2.60
2023-01-23T02:25:05.637Z,-2.50
2023-01-23T02:27:32.658Z,-2.50
2023-01-23T02:30:00.213Z,-2.60
2023-01-23T02:32:30.916Z,-2.50
2023-01-23T02:34:58.731Z,-2.50
2023-01-23T02:37:30.663Z,-2.40
2023-01-23T02:39:59.127Z,-2.40
2023-01-23T02:42:27.834Z,-2.30
2023-01-23T02:44:56.808Z,-2.30
2023-01-23T02:47:24.414Z,-2.30
2023-01-23T02:49:51.782Z,-2.30
2023-01-23T02:52:18.632Z,-2.20
2023-01-23T02:54:48.054Z,-2.20
2023-01-23T02:57:15.883Z,-2.30
2023-01-23T03:00:01.266Z,-2.30
2023-01-23T03:02:28.594Z,-2.40
2023-01-23T03:04:55.563Z,-2.50
2023-01-23T03:07:22.476Z,-2.50
2023-01-23T03:09:49.905Z,-2.50
2023-01-23T03:12:16.735Z,-2.50
2023-01-23T03:14:43.524Z,-2.50
2023-01-23T03:17:11.132Z,-2.40
2023-01-23T03:19:41.525Z,-2.40
2023-01-23T03:22:08.426Z,-2.40
2023-01-23T03:24:35.522Z,-2.30
2023-01-23T03:27:02.691Z,-2.30
2023-01-23T03:29:54.381Z,-2.30
2023-01-23T03:32:22.493Z,-2.30
2023-01-23T03:34:49.321Z,-2.40
2023-01-23T03:37:17.554Z,-2.30
2023-01-23T03:40:05.067Z,-2.40
2023-01-23T03:42:35.622Z,-2.40
2023-01-23T03:45:04.811Z,-2.30
2023-01-23T03:47:34.304Z,-2.40
2023-01-23T03:50:01.343Z,-2.40
2023-01-23T03:52:33.423Z,-2.50
2023-01-23T03:55:00.292Z,-2.50
2023-01-23T03:57:27.070Z,-2.60
2023-01-23T04:00:08.541Z,-2.60
2023-01-23T04:02:44.299Z,-2.70
2023-01-23T04:05:13.747Z,-2.70
2023-01-23T04:07:40.596Z,-2.70
2023-01-23T04:10:09.479Z,-2.70
2023-01-23T04:12:37.341Z,-2.60
2023-01-23T04:15:05.321Z,-2.70
2023-01-23T04:17:32.155Z,-2.70
2023-01-23T04:19:59.033Z,-2.70
2023-01-23T04:22:26.154Z,-2.60
2023-01-23T04:24:52.885Z,-2.60
2023-01-23T04:27:19.786Z,-2.50
2023-01-23T04:29:49.659Z,-2.60
2023-01-23T04:32:17.600Z,-2.60
2023-01-23T04:34:46.921Z,-2.60
2023-01-23T04:37:14.701Z,-2.50
2023-01-23T04:39:41.476Z,-2.50
2023-01-23T04:42:08.662Z,-2.40
2023-01-23T04:44:49.193Z,-2.50
2023-01-23T04:47:34.965Z,-2.40
2023-01-23T04:50:04.415Z,-2.40
2023-01-23T04:52:34.135Z,-2.40
2023-01-23T04:55:01.019Z,-2.40
2023-01-23T04:57:27.893Z,-2.50
2023-01-23T05:00:02.216Z,-2.50
2023-01-23T05:02:29.746Z,-2.50
2023-01-23T05:04:56.650Z,-2.50
2023-01-23T05:07:23.627Z,-2.50
2023-01-23T05:10:04.958Z,-2.50
2023-01-23T05:12:32.112Z,-2.50
2023-01-23T05:14:59.456Z,-2.40
2023-01-23T05:17:26.360Z,-2.50
2023-01-23T05:19:53.961Z,-2.50
2023-01-23T05:22:20.838Z,-2.60
2023-01-23T05:24:47.893Z,-2.60
2023-01-23T05:27:16.867Z,-2.50
2023-01-23T05:29:46.890Z,-2.60
2023-01-23T05:32:19.172Z,-2.60
2023-01-23T05:35:04.546Z,-2.70
2023-01-23T05:37:31.846Z,-2.60
2023-01-23T05:40:06.812Z,-2.60
2023-01-23T05:42:52.217Z,-2.60
2023-01-23T05:45:54.096Z,-2.60
2023-01-23T05:48:30.629Z,-2.70
2023-01-23T05:50:57.600Z,-2.60
2023-01-23T05:53:26.751Z,-2.60
2023-01-23T05:55:53.619Z,-2.60
2023-01-23T05:58:22.109Z,-2.50
2023-01-23T06:01:21.754Z,-2.60
2023-01-23T06:04:13.081Z,-2.70
2023-01-23T06:06:53.334Z,-2.60
2023-01-23T06:09:20.298Z,-2.70
2023-01-23T06:11:47.857Z,-2.70
2023-01-23T06:14:15.391Z,-2.80
2023-01-23T06:16:42.216Z,-2.80
2023-01-23T06:19:10.644Z,-2.80
2023-01-23T06:21:37.590Z,-2.80
2023-01-23T06:24:04.782Z,-2.80
2023-01-23T06:26:31.686Z,-2.90
2023-01-23T06:28:58.830Z,-2.80
2023-01-23T06:31:25.869Z,-2.80
2023-01-23T06:33:55.063Z,-2.80
2023-01-23T06:36:29.209Z,-2.80
2023-01-23T06:38:56.214Z,-2.80
2023-01-23T06:41:33.267Z,-2.70
2023-01-23T06:44:03.602Z,-2.70
2023-01-23T06:46:30.779Z,-2.60
2023-01-23T06:48:58.037Z,-2.50
2023-01-23T06:51:25.157Z,-2.50
2023-01-23T06:53:52.103Z,-2.50
2023-01-23T06:56:19.319Z,-2.50
2023-01-23T06:58:48.763Z,-2.50
2023-01-23T07:01:26.471Z,-2.50
2023-01-23T07:04:16.710Z,-2.50
2023-01-23T07:06:46.511Z,-2.60
2023-01-23T07:09:15.883Z,-2.60
2023-01-23T07:11:50.304Z,-2.60
2023-01-23T07:14:17.479Z,-2.60
2023-01-23T07:16:47.334Z,-2.60
2023-01-23T07:19:14.348Z,-2.70
2023-01-23T07:21:42.661Z,-2.70
2023-01-23T07:24:09.568Z,-2.80
2023-01-23T07:26:36.436Z,-2.80
2023-01-23T07:29:03.353Z,-2.80
2023-01-23T07:31:30.257Z,-2.80
2023-01-23T07:33:57.227Z,-2.90
2023-01-23T07:36:24.121Z,-2.90
2023-01-23T07:38:51.040Z,-2.90
2023-01-23T07:41:17.882Z,-2.80
2023-01-23T07:43:44.890Z,-2.70
2023-01-23T07:46:11.897Z,-2.70
2023-01-23T07:48:38.911Z,-2.80
2023-01-23T07:51:06.178Z,-2.80
2023-01-23T07:53:33.160Z,-2.90
2023-01-23T07:56:00.121Z,-2.90
2023-01-23T07:58:27.043Z,-2.90
2023-01-23T08:00:53.913Z,-2.90
2023-01-23T08:03:21.084Z,-2.90
2023-01-23T08:05:51.167Z,-2.90
2023-01-23T08:08:18.118Z,-2.90
2023-01-23T08:10:45.147Z,-2.90
2023-01-23T08:13:15.260Z,-2.90
2023-01-23T08:15:42.321Z,-2.90
2023-01-23T08:18:09.101Z,-2.90
2023-01-23T08:20:35.915Z,-2.90
2023-01-23T08:23:02.864Z,-2.90
2023-01-23T08:25:29.822Z,-2.90
2023-01-23T08:27:56.947Z,-2.80
2023-01-23T08:30:23.787Z,-2.80
2023-01-23T08:32:50.823Z,-2.80
2023-01-23T08:35:17.718Z,-2.80
2023-01-23T08:37:44.712Z,-2.80
2023-01-23T08:40:12.116Z,-2.70
2023-01-23T08:42:38.966Z,-2.70
2023-01-23T08:45:06.404Z,-2.70
2023-01-23T08:47:36.620Z,-2.70
2023-01-23T08:50:04.871Z,-2.70
2023-01-23T08:52:32.035Z,-2.70
2023-01-23T08:54:59.132Z,-2.60
2023-01-23T08:57:26.011Z,-2.50
2023-01-23T08:59:52.846Z,-2.50
2023-01-23T09:02:19.746Z,-2.40
2023-01-23T09:04:46.744Z,-2.40
2023-01-23T09:07:13.686Z,-2.30
2023-01-23T09:09:40.543Z,-2.30
2023-01-23T09:12:08.332Z,-2.20
2023-01-23T09:14:35.343Z,-2.10
2023-01-23T09:17:02.162Z,-2.00
2023-01-23T09:19:31.693Z,-1.90
2023-01-23T09:21:58.573Z,-1.90
2023-01-23T09:24:25.583Z,-1.80
2023-01-23T09:26:52.500Z,-1.70
2023-01-23T09:29:19.388Z,-1.70
2023-01-23T09:31:46.393Z,-1.60
2023-01-23T09:34:14.512Z,-1.60
2023-01-23T09:36:43.748Z,-1.50
2023-01-23T09:39:11.113Z,-1.40
2023-01-23T09:41:39.255Z,-1.30
2023-01-23T09:44:34.107Z,-1.30
2023-01-23T09:47:17.862Z,-1.20
2023-01-23T09:49:58.001Z,-1.10
2023-01-23T09:52:27.936Z,-1.10
2023-01-23T09:55:16.580Z,-1.00
2023-01-23T09:57:48.444Z,-0.90
2023-01-23T10:00:24.692Z,-0.80
2023-01-23T10:02:53.510Z,-0.70
2023-01-23T10:05:54.458Z,-0.60
2023-01-23T10:08:56.805Z,-0.60
2023-01-23T10:11:36.643Z,-0.50
2023-01-23T10:14:39.687Z,-0.40
2023-01-23T10:17:26.686Z,-0.30
2023-01-23T10:20:00.900Z,-0.30
2023-01-23T10:22:59.009Z,-0.20
2023-01-23T10:25:28.224Z,-0.20
2023-01-23T10:27:57.130Z,-0.10
2023-01-23T10:30:28.305Z,0.00
2023-01-23T10:33:14.824Z,0.00
2023-01-23T10:35:50.916Z,0.00
2023-01-23T10:38:46.536Z,0.00
2023-01-23T10:41:14.574Z,0.10
2023-01-23T10:43:45.189Z,0.10
2023-01-23T10:46:15.026Z,0.10
2023-01-23T10:48:48.752Z,0.10
2023-01-23T10:51:31.242Z,0.10
2023-01-23T10:54:36.631Z,0.10
2023-01-23T10:57:09.337Z,0.10
2023-01-23T11:00:05.029Z,0.10
2023-01-23T11:02:35.225Z,0.20
2023-01-23T11:05:03.105Z,0.20
2023-01-23T11:07:31.651Z,0.30
2023-01-23T11:10:07.728Z,0.30
2023-01-23T11:12:35.679Z,0.30
2023-01-23T11:15:33.266Z,0.40
2023-01-23T11:18:01.014Z,0.40
2023-01-23T11:20:29.142Z,0.50
2023-01-23T11:23:16.398Z,0.50
2023-01-23T11:25:53.618Z,0.60
2023-01-23T11:28:35.150Z,0.60
2023-01-23T11:31:15.952Z,0.70
2023-01-23T11:33:52.572Z,0.80
2023-01-23T11:36:19.462Z,0.90
2023-01-23T11:38:52.921Z,1.00
2023-01-23T11:41:27.991Z,1.00
2023-01-23T11:43:54.960Z,1.10
2023-01-23T11:46:36.663Z,1.20
2023-01-23T11:49:19.604Z,1.20
2023-01-23T11:51:55.865Z,1.30
2023-01-23T11:54:53.934Z,1.30
2023-01-23T11:57:32.822Z,1.40
2023-01-23T12:00:07.336Z,1.50
2023-01-23T12:03:14.562Z,1.60
2023-01-23T12:05:47.603Z,1.60
2023-01-23T12:08:31.990Z,1.70
2023-01-23T12:11:16.369Z,1.80
2023-01-23T12:13:43.264Z,1.80
2023-01-23T12:16:28.828Z,1.80
2023-01-23T12:19:11.805Z,1.80
2023-01-23T12:22:00.305Z,1.90
2023-01-23T12:24:46.122Z,1.90
2023-01-23T12:27:29.150Z,1.90
2023-01-23T12:30:47.320Z,2.00
2023-01-23T12:33:19.359Z,2.00
2023-01-23T12:35:55.431Z,2.10
2023-01-23T12:38:30.516Z,2.20
2023-01-23T12:41:21.351Z,2.20
2023-01-23T12:44:14.845Z,2.20
2023-01-23T12:46:59.173Z,2.30
2023-01-23T12:49:27.234Z,2.30
2023-01-23T12:52:15.207Z,2.40
2023-01-23T12:55:02.451Z,2.50
2023-01-23T12:58:00.329Z,2.50
2023-01-23T13:00:52.213Z,2.60
2023-01-23T13:03:47.129Z,2.60
2023-01-23T13:06:20.085Z,2.60
2023-01-23T13:09:12.615Z,2.60
2023-01-23T13:12:16.379Z,2.60
2023-01-23T13:17:36.555Z,2.80
2023-01-23T13:20:44.236Z,2.80
2023-01-23T13:23:24.433Z,2.80
2023-01-23T13:26:23.322Z,2.90
2023-01-23T13:28:57.700Z,2.90
2023-01-23T13:31:38.018Z,2.90
2023-01-23T13:34:25.483Z,3.00
2023-01-23T13:36:54.361Z,3.00
2023-01-23T13:39:27.046Z,3.00
2023-01-23T13:42:12.725Z,3.00
2023-01-23T13:45:17.746Z,3.00
2023-01-23T14:22:41.270Z,3.40
2023-01-23T14:25:15.078Z,3.40
2023-01-23T14:27:52.915Z,3.40
2023-01-23T14:30:28.276Z,3.40
2023-01-23T14:33:01.131Z,3.40
2023-01-23T14:35:31.936Z,3.40
2023-01-23T14:38:04.896Z,3.50
2023-01-23T14:40:43.118Z,3.50
2023-01-23T14:43:23.708Z,3.40
2023-01-23T14:45:58.953Z,3.50
2023-01-23T14:48:25.979Z,3.50
2023-01-23T14:51:10.123Z,3.50
2023-01-23T14:53:40.552Z,3.50
2023-01-23T14:56:09.063Z,3.60
2023-01-23T14:58:35.977Z,3.60
2023-01-23T15:01:04.135Z,3.60
2023-01-23T15:03:38.099Z,3.60
2023-01-23T15:06:13.628Z,3.60
2023-01-23T15:08:40.662Z,3.60
2023-01-23T15:11:11.989Z,3.60
2023-01-23T15:13:54.783Z,3.70
2023-01-23T15:16:26.539Z,3.70
2023-01-23T15:19:04.962Z,3.70
2023-01-23T15:21:39.582Z,3.70
2023-01-23T15:24:09.468Z,3.70
2023-01-23T15:26:37.116Z,3.70
2023-01-23T15:29:10.129Z,3.80
2023-01-23T15:31:40.416Z,3.80
2023-01-23T15:34:16.486Z,3.80
2023-01-23T15:36:52.514Z,3.80
2023-01-23T15:39:26.212Z,3.80
2023-01-23T15:41:59.153Z,3.90
2023-01-23T15:44:28.780Z,3.90
2023-01-23T15:46:56.572Z,3.90
2023-01-23T15:49:26.401Z,3.80
2023-01-23T15:51:56.177Z,3.90
2023-01-23T15:54:26.582Z,3.90
2023-01-23T15:57:05.430Z,3.90
2023-01-23T15:59:33.656Z,3.80
2023-01-23T16:02:00.638Z,3.80
2023-01-23T16:04:27.500Z,3.80
2023-01-23T16:06:54.430Z,3.90
2023-01-23T16:09:32.820Z,3.90
2023-01-23T16:12:00.004Z,3.90
2023-01-23T16:14:26.870Z,3.90
2023-01-23T16:16:54.431Z,3.90
2023-01-23T16:19:22.147Z,3.90
2023-01-23T16:21:59.407Z,3.90
2023-01-23T16:24:36.785Z,3.90
2023-01-23T16:27:03.729Z,3.90
2023-01-23T16:29:31.987Z,3.90
2023-01-23T16:31:59.670Z,3.90
2023-01-23T16:34:26.667Z,3.80
2023-01-23T16:36:55.050Z,3.80
2023-01-23T16:39:26.823Z,3.80
2023-01-23T16:41:56.503Z,3.80
2023-01-23T16:44:26.437Z,3.70
2023-01-23T16:46:53.487Z,3.70
2023-01-23T16:49:20.689Z,3.70
2023-01-23T16:52:00.389Z,3.70
2023-01-23T16:54:27.418Z,3.70
2023-01-23T16:56:54.867Z,3.70
2023-01-23T16:59:44.027Z,3.70
2023-01-23T17:02:17.238Z,3.70
2023-01-23T17:04:44.291Z,3.70
2023-01-23T17:07:18.071Z,3.70
2023-01-23T17:09:45.614Z,3.80
2023-01-23T17:12:16.859Z,3.70
2023-01-23T17:14:44.224Z,3.70
2023-01-23T17:17:16.951Z,3.70
2023-01-23T17:19:43.926Z,3.70
2023-01-23T17:22:40.597Z,3.70
2023-01-23T17:25:21.137Z,3.70
2023-01-23T17:28:00.678Z,3.70
2023-01-23T17:30:35.411Z,3.70
2023-01-23T17:33:02.345Z,3.70
2023-01-23T17:35:32.769Z,3.70
2023-01-23T17:38:00.413Z,3.70
2023-01-23T17:40:28.313Z,3.70
2023-01-23T17:42:55.571Z,3.70
2023-01-23T17:45:24.198Z,3.70
2023-01-23T17:47:54.299Z,3.70
2023-01-23T17:50:23.521Z,3.70
2023-01-23T17:52:50.858Z,3.70
2023-01-23T17:55:19.221Z,3.70
2023-01-23T17:57:46.110Z,3.60
2023-01-23T18:00:14.509Z,3.70
2023-01-23T18:02:42.375Z,3.70
2023-01-23T18:05:14.668Z,3.70
2023-01-23T18:07:53.055Z,3.70
2023-01-23T18:10:28.436Z,3.70
2023-01-23T18:13:23.159Z,3.70
2023-01-23T18:16:05.515Z,3.80
2023-01-23T18:18:34.040Z,3.80
2023-01-23T18:21:01.615Z,3.80
2023-01-23T18:23:37.221Z,3.80
2023-01-23T18:26:07.256Z,3.80
2023-01-23T18:28:42.051Z,3.80
2023-01-23T18:31:16.499Z,3.80
2023-01-23T18:33:56.272Z,3.80
2023-01-23T18:36:31.835Z,3.80
2023-01-23T18:39:23.652Z,3.80
2023-01-23T18:42:15.441Z,3.80
2023-01-23T18:44:51.605Z,3.80
2023-01-23T18:47:19.010Z,3.80
2023-01-23T18:49:46.407Z,3.80
2023-01-23T18:52:35.675Z,3.80
2023-01-23T18:55:04.561Z,3.80
2023-01-23T18:58:05.648Z,3.90
2023-01-23T19:00:41.196Z,3.90
2023-01-23T19:03:16.611Z,3.90
2023-01-23T19:05:44.396Z,3.90
2023-01-23T19:08:28.180Z,3.90
2023-01-23T19:11:00.419Z,3.90
2023-01-23T19:13:51.060Z,3.90
2023-01-23T19:16:26.275Z,3.90
2023-01-23T19:19:14.683Z,4.00
2023-01-23T19:21:42.086Z,4.00
2023-01-23T19:24:11.093Z,4.00
2023-01-23T19:26:40.197Z,4.00
2023-01-23T19:29:20.536Z,4.00
2023-01-23T19:32:05.760Z,4.00
2023-01-23T19:34:33.998Z,4.00
2023-01-23T19:37:00.852Z,4.00
2023-01-23T19:39:27.747Z,4.00
2023-01-23T19:41:54.584Z,4.00
2023-01-23T19:44:24.176Z,3.90
2023-01-23T19:46:51.553Z,3.90
2023-01-23T19:49:18.495Z,3.90
2023-01-23T19:51:45.380Z,3.90
2023-01-23T19:54:15.819Z,3.90
2023-01-23T19:56:42.921Z,3.90
2023-01-23T19:59:09.858Z,3.90
2023-01-23T20:01:38.654Z,3.90
2023-01-23T20:04:06.451Z,3.90
2023-01-23T20:06:34.346Z,3.90
2023-01-23T20:09:01.444Z,3.90
2023-01-23T20:11:28.476Z,3.90
2023-01-23T20:13:55.334Z,3.90
2023-01-23T20:16:24.994Z,3.90
2023-01-23T20:18:53.486Z,3.90
2023-01-23T20:21:21.826Z,3.90
2023-01-23T20:23:48.930Z,3.90
2023-01-23T20:26:16.791Z,3.80
2023-01-23T20:28:45.088Z,3.80
2023-01-23T20:31:12.944Z,3.90
2023-01-23T20:33:40.284Z,3.80
2023-01-23T20:36:07.992Z,3.80
2023-01-23T20:38:34.927Z,3.80
2023-01-23T20:41:12.849Z,3.80
2023-01-23T20:43:41.180Z,3.80
2023-01-23T20:46:08.325Z,3.80
2023-01-23T20:48:36.263Z,3.80
2023-01-23T20:51:03.298Z,3.80
2023-01-23T20:53:30.182Z,3.80
2023-01-23T20:56:10.545Z,3.80
2023-01-23T20:59:00.746Z,3.80
2023-01-23T21:01:29.653Z,3.80
2023-01-23T21:03:56.828Z,3.80
2023-01-23T21:06:23.784Z,3.80
2023-01-23T21:08:50.662Z,3.80
2023-01-23T21:11:19.614Z,3.80
2023-01-23T21:13:50.852Z,3.80
2023-01-23T21:16:18.013Z,3.80
2023-01-23T21:18:46.335Z,3.80
2023-01-23T21:21:14.848Z,3.80
2023-01-23T21:23:41.885Z,3.80
2023-01-23T21:26:10.044Z,3.90
2023-01-23T21:28:36.982Z,3.90
2023-01-23T21:31:15.278Z,3.90
2023-01-23T21:33:46.467Z,3.90
2023-01-23T21:36:14.722Z,3.90
2023-01-23T21:38:41.661Z,3.90
2023-01-23T21:41:08.647Z,3.90
2023-01-23T21:43:35.444Z,3.90
2023-01-23T21:46:02.440Z,3.90
2023-01-23T21:48:29.957Z,3.90
2023-01-23T21:51:07.196Z,3.90
2023-01-23T21:53:34.288Z,3.90
2023-01-23T21:56:01.099Z,3.90
2023-01-23T21:58:27.946Z,3.90
2023-01-23T22:01:20.869Z,3.90
2023-01-23T22:03:47.860Z,4.00
2023-01-23T22:06:14.724Z,4.00
2023-01-23T22:08:41.656Z,3.90
2023-01-23T22:11:11.731Z,3.90
2023-01-23T22:13:38.790Z,3.90
2023-01-23T22:16:06.146Z,3.80
2023-01-23T22:18:33.199Z,3.80
2023-01-23T22:21:02.951Z,3.80
2023-01-23T22:23:29.860Z,3.70
2023-01-23T22:25:58.584Z,3.80
2023-01-23T22:28:25.559Z,3.80
2023-01-23T22:30:52.357Z,3.80
2023-01-23T22:33:22.382Z,3.80
2023-01-23T22:35:49.354Z,3.80
2023-01-23T22:38:16.395Z,3.80
2023-01-23T22:40:43.271Z,3.80
2023-01-23T22:43:10.351Z,3.80
2023-01-23T22:45:37.303Z,3.80
2023-01-23T22:48:07.244Z,3.80
2023-01-23T22:50:34.119Z,3.80
2023-01-23T22:53:00.956Z,3.80
2023-01-23T22:55:27.909Z,3.80
2023-01-23T22:57:54.754Z,3.80
2023-01-23T23:00:21.732Z,3.80
2023-01-23T23:02:48.578Z,3.80
2023-01-23T23:05:16.284Z,3.80
2023-01-23T23:07:43.167Z,3.80
2023-01-23T23:10:11.691Z,3.80
2023-01-23T23:12:38.575Z,3.80
2023-01-23T23:15:05.949Z,3.80
2023-01-23T23:17:32.927Z,3.80
2023-01-23T23:19:59.782Z,3.80
2023-01-23T23:22:26.573Z,3.70
2023-01-23T23:24:53.403Z,3.80
2023-01-23T23:27:20.334Z,3.70
2023-01-23T23:29:47.131Z,3.80
2023-01-23T23:32:14.057Z,3.70
2023-01-23T23:34:41.063Z,3.70
2023-01-23T23:37:07.900Z,3.80
2023-01-23T23:39:34.770Z,3.80
2023-01-23T23:42:01.717Z,3.80
2023-01-23T23:44:28.613Z,3.80
2023-01-23T23:46:55.379Z,3.80
2023-01-23T23:49:22.899Z,3.70
2023-01-23T23:51:50.077Z,3.80
2023-01-23T23:54:16.973Z,3.80
2023-01-23T23:56:44.963Z,3.80
2023-01-23T23:59:15.832Z,3.80
